Time;durP1;ratioP1;P1;durP2;ratioP2;P2;SDS_P1;SDS_P2;PMS_P1;PMS_P2;Temp;Humidity;BMP_temperature;BMP_pressure;BME280_temperature;BME280_humidity;BME280_pressure;Samples;Min_cycle;Max_cycle;Signal;HPM_P1;HPM_P2
2022/03/05 00:01:22;;;;;;;30.13;18.80;;;6.30;91.90;;;;;;5020898;28;20208;-35
2022/03/05 00:03:49;;;;;;;27.17;18.83;;;6.30;91.90;;;;;;5016181;28;20201;-35
2022/03/05 00:06:19;;;;;;;27.77;18.90;;;6.20;91.90;;;;;;5010435;28;20247;-35
2022/03/05 00:08:46;;;;;;;26.87;17.30;;;6.10;92.00;;;;;;5025966;28;20741;-35
2022/03/05 00:11:18;;;;;;;24.10;16.90;;;6.10;92.00;;;;;;5023874;28;20207;-37
2022/03/05 00:13:48;;;;;;;28.50;17.30;;;6.00;92.00;;;;;;5012789;28;20408;-35
2022/03/05 00:16:15;;;;;;;24.53;16.97;;;5.90;92.00;;;;;;5026686;28;20220;-34
2022/03/05 00:18:42;;;;;;;26.77;16.90;;;5.80;92.00;;;;;;5015592;28;20214;-35
2022/03/05 00:21:17;;;;;;;25.00;16.53;;;5.80;92.10;;;;;;5025778;28;20247;-35
2022/03/05 00:23:46;;;;;;;26.10;16.97;;;5.70;92.10;;;;;;5010338;28;20654;-34
2022/03/05 00:26:17;;;;;;;26.03;16.77;;;5.70;92.00;;;;;;5010112;28;20224;-35
2022/03/05 00:28:46;;;;;;;24.27;15.83;;;5.60;92.00;;;;;;5004891;28;20233;-35
2022/03/05 00:31:18;;;;;;;22.27;16.40;;;5.50;91.90;;;;;;5024869;28;20212;-35
2022/03/05 00:33:45;;;;;;;24.27;16.77;;;5.50;92.00;;;;;;5016853;28;20327;-36
2022/03/05 00:36:12;;;;;;;26.00;17.00;;;5.40;91.90;;;;;;5027212;28;20196;-35
2022/03/05 00:38:45;;;;;;;26.43;17.13;;;5.40;91.90;;;;;;5028769;28;20217;-35
2022/03/05 00:41:17;;;;;;;27.77;16.20;;;5.30;92.00;;;;;;5029608;28;20215;-35
2022/03/05 00:43:49;;;;;;;27.00;17.80;;;5.20;92.00;;;;;;5013505;28;20248;-34
2022/03/05 00:46:17;;;;;;;26.53;18.50;;;5.20;92.00;;;;;;5026495;28;20297;-35
2022/03/05 00:48:44;;;;;;;28.37;18.67;;;5.10;92.00;;;;;;5029864;28;20227;-34
2022/03/05 00:51:11;;;;;;;26.63;18.27;;;5.10;92.00;;;;;;5015282;28;20209;-35
2022/03/05 00:53:39;;;;;;;27.90;17.83;;;5.00;92.00;;;;;;5025432;28;20690;-35
2022/03/05 00:56:13;;;;;;;31.37;20.20;;;5.00;92.00;;;;;;5019310;28;20293;-35
2022/03/05 00:58:40;;;;;;;33.33;20.17;;;5.00;92.10;;;;;;5010927;28;20312;-34
2022/03/05 01:01:09;;;;;;;30.67;18.57;;;4.90;92.10;;;;;;5010620;28;20312;-34
2022/03/05 01:03:37;;;;;;;30.47;19.47;;;4.90;92.10;;;;;;5026786;28;20193;-35
2022/03/05 01:06:05;;;;;;;30.70;19.40;;;4.80;92.10;;;;;;5030582;28;20263;-35
2022/03/05 01:08:35;;;;;;;31.93;19.97;;;4.80;92.10;;;;;;5008475;28;20213;-36
2022/03/05 01:11:08;;;;;;;30.47;19.77;;;4.80;92.10;;;;;;5011517;28;20240;-35
2022/03/05 01:13:38;;;;;;;30.23;19.67;;;4.70;92.10;;;;;;5013344;28;20197;-35
2022/03/05 01:16:08;;;;;;;33.17;19.83;;;4.70;92.10;;;;;;5010664;28;20221;-35
2022/03/05 01:18:38;;;;;;;29.03;18.90;;;4.60;92.10;;;;;;5027776;28;20264;-35
2022/03/05 01:21:06;;;;;;;28.67;18.83;;;4.60;92.10;;;;;;5028825;28;20319;-34
2022/03/05 01:23:33;;;;;;;29.57;19.30;;;4.50;92.10;;;;;;5023772;28;20233;-36
2022/03/05 01:26:05;;;;;;;30.90;19.50;;;4.50;92.10;;;;;;5012646;28;20234;-35
2022/03/05 01:28:33;;;;;;;33.20;21.10;;;4.50;92.10;;;;;;5010645;28;20241;-34
2022/03/05 01:31:01;;;;;;;32.27;20.13;;;4.40;92.10;;;;;;5014198;28;20630;-34
2022/03/05 01:33:28;;;;;;;31.60;19.07;;;4.40;92.10;;;;;;5027300;28;20202;-35
2022/03/05 01:35:55;;;;;;;33.63;19.90;;;4.40;92.10;;;;;;5010283;28;21134;-35
2022/03/05 01:38:25;;;;;;;34.70;19.23;;;4.30;92.10;;;;;;5009027;28;20232;-35
2022/03/05 01:40:54;;;;;;;29.07;19.67;;;4.30;92.10;;;;;;5013138;28;20255;-35
2022/03/05 01:43:24;;;;;;;32.40;20.30;;;4.30;92.20;;;;;;5008836;28;20284;-34
2022/03/05 01:45:53;;;;;;;30.73;19.17;;;4.30;92.20;;;;;;5011983;28;20696;-35
2022/03/05 01:48:20;;;;;;;33.37;20.40;;;4.20;92.20;;;;;;5012020;28;20217;-34
2022/03/05 01:50:52;;;;;;;34.83;20.20;;;4.20;92.10;;;;;;5023939;28;20292;-35
2022/03/05 01:53:19;;;;;;;29.77;19.27;;;4.20;92.20;;;;;;5010683;28;20716;-35
2022/03/05 01:55:49;;;;;;;29.33;19.53;;;4.20;92.20;;;;;;5021336;28;20662;-35
2022/03/05 01:58:17;;;;;;;35.37;20.00;;;4.10;92.20;;;;;;5025804;28;20288;-35
2022/03/05 02:00:44;;;;;;;32.47;20.37;;;4.10;92.20;;;;;;5028707;28;20607;-35
2022/03/05 02:03:14;;;;;;;31.60;19.83;;;4.00;92.10;;;;;;5026798;28;20209;-35
2022/03/05 02:05:44;;;;;;;30.47;19.43;;;4.00;92.10;;;;;;5029606;28;20213;-35
2022/03/05 02:08:19;;;;;;;30.70;20.43;;;4.00;92.10;;;;;;5027284;28;20209;-35
2022/03/05 02:10:46;;;;;;;32.63;21.17;;;3.90;92.00;;;;;;5017855;28;20209;-35
2022/03/05 02:13:13;;;;;;;32.33;21.10;;;3.90;92.10;;;;;;5019294;28;20227;-35
2022/03/05 02:15:40;;;;;;;33.70;21.40;;;3.80;92.00;;;;;;5026530;28;20201;-36
2022/03/05 02:18:10;;;;;;;32.00;19.63;;;3.80;92.00;;;;;;5027607;28;20204;-35
2022/03/05 02:20:39;;;;;;;33.30;21.23;;;3.70;92.00;;;;;;5020906;28;20236;-35
2022/03/05 02:23:08;;;;;;;39.97;21.47;;;3.70;92.00;;;;;;5027532;28;20197;-35
2022/03/05 02:25:35;;;;;;;33.87;21.03;;;3.70;92.00;;;;;;5019970;28;20677;-35
2022/03/05 02:28:07;;;;;;;34.53;21.23;;;3.60;91.90;;;;;;5028909;28;20207;-35
2022/03/05 02:30:39;;;;;;;31.00;20.30;;;3.60;92.00;;;;;;5025765;28;20299;-35
2022/03/05 02:33:06;;;;;;;34.27;20.53;;;3.60;92.00;;;;;;5022543;28;20203;-35
2022/03/05 02:35:33;;;;;;;38.87;21.33;;;3.50;91.90;;;;;;5019438;28;20309;-35
2022/03/05 02:38:03;;;;;;;33.97;20.80;;;3.50;91.90;;;;;;5009263;28;20296;-35
2022/03/05 02:40:30;;;;;;;34.60;21.57;;;3.50;91.90;;;;;;5009197;28;20320;-35
2022/03/05 02:42:57;;;;;;;34.83;21.70;;;3.50;91.90;;;;;;5019542;28;20221;-35
2022/03/05 02:45:25;;;;;;;35.47;21.80;;;3.40;91.90;;;;;;5020801;28;20662;-44
2022/03/05 02:47:52;;;;;;;32.70;20.90;;;3.40;91.90;;;;;;5009731;28;20396;-43
2022/03/05 02:50:19;;;;;;;32.17;21.10;;;3.40;91.80;;;;;;5019526;28;20686;-43
2022/03/05 02:52:49;;;;;;;35.40;21.57;;;3.40;91.90;;;;;;4999240;28;20320;-44
2022/03/05 02:55:19;;;;;;;35.20;21.17;;;3.40;92.00;;;;;;5008104;28;20642;-44
2022/03/05 02:57:46;;;;;;;37.07;22.17;;;3.40;92.00;;;;;;5007931;28;20205;-44
2022/03/05 03:00:18;;;;;;;38.77;21.87;;;3.40;91.90;;;;;;5006535;28;20239;-44
2022/03/05 03:02:49;;;;;;;36.80;22.00;;;3.30;91.90;;;;;;5000681;28;20823;-43
2022/03/05 03:05:21;;;;;;;34.50;20.80;;;3.30;91.90;;;;;;5007564;28;20205;-44
2022/03/05 03:07:51;;;;;;;35.10;21.93;;;3.30;91.90;;;;;;5007240;28;20279;-43
2022/03/05 03:10:22;;;;;;;34.23;21.27;;;3.20;91.90;;;;;;5007571;28;20773;-43
2022/03/05 03:12:49;;;;;;;35.23;22.10;;;3.20;91.90;;;;;;4999161;28;20767;-43
2022/03/05 03:15:17;;;;;;;32.87;20.90;;;3.20;91.80;;;;;;4989407;28;20206;-44
2022/03/05 03:17:47;;;;;;;32.83;21.17;;;3.20;91.90;;;;;;4999205;28;20205;-44
2022/03/05 03:20:18;;;;;;;33.80;20.43;;;3.10;91.80;;;;;;5002189;28;20255;-43
2022/03/05 03:22:46;;;;;;;35.83;21.53;;;3.10;91.90;;;;;;4997653;28;20236;-43
2022/03/05 03:25:38;;;;;;;35.17;21.27;;;3.10;91.90;;;;;;4988537;28;20198;-44
2022/03/05 03:28:08;;;;;;;34.57;20.77;;;3.10;91.90;;;;;;5001885;28;20206;-43
2022/03/05 03:30:37;;;;;;;34.97;21.13;;;3.10;91.90;;;;;;5007017;28;20224;-43
2022/03/05 03:33:09;;;;;;;38.10;22.00;;;3.00;91.90;;;;;;4991644;28;20202;-43
2022/03/05 03:35:36;;;;;;;35.03;21.50;;;3.00;92.00;;;;;;4988756;28;20305;-43
2022/03/05 03:38:03;;;;;;;32.23;20.70;;;3.00;91.90;;;;;;4989354;28;20214;-43
2022/03/05 03:40:33;;;;;;;33.13;21.37;;;3.00;91.90;;;;;;4999989;28;20763;-44
2022/03/05 03:43:00;;;;;;;34.80;21.03;;;3.00;92.10;;;;;;4998673;28;20630;-44
2022/03/05 03:45:28;;;;;;;35.37;21.70;;;3.00;92.00;;;;;;5007954;28;20205;-43
2022/03/05 03:47:57;;;;;;;37.43;22.13;;;3.00;92.20;;;;;;4996994;28;20216;-43
2022/03/05 03:50:25;;;;;;;33.23;20.77;;;3.00;92.10;;;;;;5007631;28;20636;-44
2022/03/05 03:52:55;;;;;;;32.33;20.23;;;3.00;92.10;;;;;;5006326;28;20245;-43
2022/03/05 03:55:28;;;;;;;31.87;20.37;;;3.00;92.10;;;;;;5019136;28;20299;-44
2022/03/05 03:57:55;;;;;;;33.73;20.23;;;2.90;92.30;;;;;;5026011;28;20200;-43
2022/03/05 04:00:23;;;;;;;30.03;19.73;;;3.00;92.30;;;;;;5024796;28;20240;-43
2022/03/05 04:02:55;;;;;;;31.80;20.23;;;2.90;92.20;;;;;;4992290;28;20202;-44
2022/03/05 04:05:25;;;;;;;32.37;20.83;;;2.90;92.30;;;;;;5025022;28;20208;-43
2022/03/05 04:10:41;;;;;;;35.73;20.00;;;2.90;92.20;;;;;;5025704;28;20200;-43
2022/03/05 04:13:11;;;;;;;34.70;20.23;;;2.90;92.20;;;;;;5024885;28;20219;-43
2022/03/05 04:15:45;;;;;;;31.20;19.50;;;2.80;92.30;;;;;;5026779;28;20209;-43
2022/03/05 04:18:15;;;;;;;33.53;20.67;;;2.80;92.30;;;;;;5012024;28;20206;-43
2022/03/05 04:20:47;;;;;;;32.93;19.97;;;2.80;92.20;;;;;;5009175;28;20229;-43
2022/03/05 04:23:17;;;;;;;33.77;19.67;;;2.80;92.30;;;;;;5009070;28;20299;-44
2022/03/05 04:25:44;;;;;;;34.87;21.10;;;2.70;92.30;;;;;;5010968;28;20260;-44
2022/03/05 04:28:14;;;;;;;31.07;19.67;;;2.70;92.20;;;;;;5008249;28;20647;-44
2022/03/05 04:30:42;;;;;;;32.80;20.33;;;2.70;92.50;;;;;;5007455;28;20271;-43
2022/03/05 04:33:11;;;;;;;36.03;20.23;;;2.60;92.20;;;;;;5010674;28;20275;-44
2022/03/05 04:35:41;;;;;;;29.90;19.00;;;2.60;92.20;;;;;;5025090;28;20236;-42
2022/03/05 04:38:08;;;;;;;32.50;20.57;;;2.60;92.20;;;;;;5025838;28;20293;-35
2022/03/05 04:40:38;;;;;;;30.30;19.80;;;2.60;92.20;;;;;;5024844;28;20339;-34
2022/03/05 04:43:05;;;;;;;32.77;20.70;;;2.60;92.20;;;;;;5014897;28;20202;-35
2022/03/05 04:45:36;;;;;;;34.00;20.30;;;2.60;92.20;;;;;;5016370;28;20301;-34
2022/03/05 04:48:06;;;;;;;31.60;19.60;;;2.60;92.20;;;;;;5020508;28;20642;-34
2022/03/05 04:50:36;;;;;;;31.03;20.17;;;2.60;92.20;;;;;;5024597;28;20631;-34
2022/03/05 04:53:03;;;;;;;35.00;21.47;;;2.50;92.20;;;;;;5016864;28;20656;-34
2022/03/05 04:55:31;;;;;;;32.03;19.03;;;2.50;92.10;;;;;;5026813;28;20237;-36
2022/03/05 04:58:00;;;;;;;34.23;19.67;;;2.50;92.20;;;;;;4996864;28;20209;-34
2022/03/05 05:00:28;;;;;;;31.90;19.57;;;2.50;92.30;;;;;;5007818;28;20606;-35
2022/03/05 05:02:55;;;;;;;32.87;20.00;;;2.50;92.20;;;;;;5024513;28;20203;-34
2022/03/05 05:05:24;;;;;;;33.47;19.63;;;2.50;92.30;;;;;;5011661;28;20706;-34
2022/03/05 05:07:54;;;;;;;34.47;20.97;;;2.50;92.30;;;;;;5008356;28;20229;-35
2022/03/05 05:10:22;;;;;;;35.87;20.47;;;2.40;92.20;;;;;;5025239;28;20292;-33
2022/03/05 05:12:49;;;;;;;32.97;20.30;;;2.40;92.20;;;;;;5017547;28;20296;-33
2022/03/05 05:15:19;;;;;;;31.00;19.57;;;2.40;92.20;;;;;;5007814;28;20229;-34
2022/03/05 05:17:46;;;;;;;33.70;20.43;;;2.40;92.30;;;;;;5016482;28;20232;-33
2022/03/05 05:20:15;;;;;;;32.37;20.70;;;2.40;92.20;;;;;;5019806;28;20794;-33
2022/03/05 05:22:45;;;;;;;32.37;19.63;;;2.30;92.20;;;;;;5012004;28;20259;-34
2022/03/05 05:25:14;;;;;;;34.90;20.03;;;2.30;92.20;;;;;;5027577;28;20689;-33
2022/03/05 05:27:44;;;;;;;35.20;21.20;;;2.30;92.30;;;;;;5029311;28;20201;-34
2022/03/05 05:30:11;;;;;;;33.60;21.47;;;2.30;92.20;;;;;;5030204;28;20608;-34
2022/03/05 05:32:41;;;;;;;33.57;20.80;;;2.20;92.20;;;;;;5010798;28;20216;-33
2022/03/05 05:35:10;;;;;;;35.53;20.10;;;2.20;92.30;;;;;;5028820;28;20227;-34
2022/03/05 05:37:43;;;;;;;32.37;20.00;;;2.20;92.30;;;;;;5027837;28;20205;-34
2022/03/05 05:40:11;;;;;;;34.17;21.63;;;2.20;92.20;;;;;;5029573;28;20239;-34
2022/03/05 05:42:39;;;;;;;34.93;21.10;;;2.20;92.30;;;;;;5021008;28;20222;-33
2022/03/05 05:45:07;;;;;;;35.93;22.03;;;2.10;92.20;;;;;;5010779;28;20590;-34
2022/03/05 05:47:34;;;;;;;33.90;21.80;;;2.10;92.10;;;;;;5014376;28;20296;-34
2022/03/05 05:50:02;;;;;;;35.80;21.17;;;2.20;92.10;;;;;;4992793;28;20222;-34
2022/03/05 05:52:34;;;;;;;34.87;21.97;;;2.10;92.10;;;;;;5013561;28;20237;-34
2022/03/05 05:55:02;;;;;;;37.97;22.00;;;2.10;92.20;;;;;;5011254;28;20201;-34
2022/03/05 05:57:31;;;;;;;34.10;22.13;;;2.10;92.10;;;;;;5011284;28;20196;-34
2022/03/05 05:59:59;;;;;;;38.93;23.13;;;2.10;92.00;;;;;;5020355;28;20221;-34
2022/03/05 06:02:26;;;;;;;36.63;22.50;;;2.10;92.10;;;;;;5022973;28;20200;-34
2022/03/05 06:04:56;;;;;;;38.13;23.83;;;2.10;92.10;;;;;;5027165;28;20213;-34
2022/03/05 06:07:25;;;;;;;35.03;21.93;;;2.10;92.30;;;;;;5024368;28;20197;-33
2022/03/05 06:09:58;;;;;;;35.60;22.87;;;2.10;92.10;;;;;;5027801;28;20595;-33
2022/03/05 06:12:25;;;;;;;39.77;22.83;;;2.00;92.20;;;;;;5020986;28;20211;-33
2022/03/05 06:14:54;;;;;;;33.93;21.43;;;2.00;92.00;;;;;;5028470;28;20205;-33
2022/03/05 06:17:24;;;;;;;37.40;22.37;;;2.10;92.00;;;;;;5027005;28;20219;-34
2022/03/05 06:19:54;;;;;;;36.77;22.43;;;2.00;92.10;;;;;;5028543;28;20647;-34
2022/03/05 06:22:23;;;;;;;34.33;22.10;;;2.00;92.20;;;;;;5021235;28;20200;-34
2022/03/05 06:24:55;;;;;;;39.00;22.47;;;2.00;92.20;;;;;;5025248;28;20224;-33
2022/03/05 06:27:25;;;;;;;35.40;23.00;;;2.00;92.30;;;;;;5018722;28;20198;-33
2022/03/05 06:29:55;;;;;;;37.83;24.43;;;1.90;92.10;;;;;;5021751;28;20197;-34
2022/03/05 06:32:24;;;;;;;36.00;23.13;;;1.90;92.10;;;;;;5019964;28;20213;-34
2022/03/05 06:34:56;;;;;;;37.30;22.83;;;1.90;92.00;;;;;;5009960;28;20251;-34
2022/03/05 06:37:26;;;;;;;37.57;23.50;;;1.90;92.30;;;;;;4993222;28;20221;-34
2022/03/05 06:39:58;;;;;;;37.77;23.53;;;1.90;92.20;;;;;;5009451;28;20666;-34
2022/03/05 06:42:25;;;;;;;38.97;24.70;;;1.90;92.20;;;;;;5014569;28;20204;-34
2022/03/05 06:44:53;;;;;;;40.87;24.93;;;1.90;92.10;;;;;;5010146;28;20209;-34
2022/03/05 06:47:20;;;;;;;35.23;22.67;;;1.90;92.30;;;;;;5008862;28;20198;-34
2022/03/05 06:49:53;;;;;;;38.43;23.87;;;1.90;92.30;;;;;;5008860;28;20245;-34
2022/03/05 06:52:20;;;;;;;38.77;23.43;;;1.90;92.30;;;;;;4997542;28;20233;-34
2022/03/05 06:54:50;;;;;;;39.47;24.10;;;1.90;92.30;;;;;;5026226;28;20668;-35
2022/03/05 06:57:17;;;;;;;39.40;24.27;;;1.90;92.40;;;;;;5023227;28;20255;-34
2022/03/05 06:59:47;;;;;;;37.60;23.83;;;1.90;92.30;;;;;;5007547;28;20245;-34
2022/03/05 07:02:17;;;;;;;122.33;31.90;;;1.90;92.30;;;;;;5017693;28;20229;-43
2022/03/05 07:04:49;;;;;;;38.83;23.83;;;1.90;92.30;;;;;;5009906;28;20602;-44
2022/03/05 07:07:19;;;;;;;38.47;23.73;;;1.90;92.40;;;;;;5011488;28;20267;-43
2022/03/05 07:09:51;;;;;;;35.73;23.87;;;1.90;92.30;;;;;;5008678;28;20295;-43
2022/03/05 07:12:18;;;;;;;35.73;23.23;;;1.90;92.50;;;;;;5008551;28;20208;-43
2022/03/05 07:14:51;;;;;;;38.27;23.97;;;1.90;92.50;;;;;;5022883;28;20376;-43
2022/03/05 07:17:21;;;;;;;37.23;23.17;;;2.00;92.40;;;;;;5020013;28;20216;-43
2022/03/05 07:19:48;;;;;;;39.07;24.23;;;1.90;92.50;;;;;;5008503;28;20213;-43
2022/03/05 07:22:16;;;;;;;37.50;24.20;;;2.00;92.60;;;;;;5014280;28;20496;-43
2022/03/05 07:24:43;;;;;;;37.00;23.97;;;2.00;92.60;;;;;;4999657;28;20221;-43
2022/03/05 07:27:11;;;;;;;37.43;22.57;;;2.00;92.70;;;;;;5026387;28;20194;-43
2022/03/05 07:29:42;;;;;;;36.60;23.97;;;2.00;92.60;;;;;;5021012;28;20259;-43
2022/03/05 07:32:15;;;;;;;35.13;23.10;;;2.10;92.70;;;;;;5024021;28;20212;-43
2022/03/05 07:34:44;;;;;;;35.70;24.13;;;2.10;92.70;;;;;;5016770;28;20243;-43
2022/03/05 07:37:11;;;;;;;35.83;24.20;;;2.10;92.80;;;;;;5008373;28;20202;-43
2022/03/05 07:39:42;;;;;;;42.80;25.27;;;2.20;92.90;;;;;;5019161;28;20301;-42
2022/03/05 07:42:10;;;;;;;39.53;25.07;;;2.20;92.90;;;;;;5009911;28;20224;-43
2022/03/05 07:44:37;;;;;;;39.10;24.70;;;2.30;92.90;;;;;;5008196;28;20202;-43
2022/03/05 07:47:05;;;;;;;39.97;24.27;;;2.30;92.90;;;;;;5006786;28;20240;-43
2022/03/05 07:49:32;;;;;;;40.50;24.43;;;2.30;92.90;;;;;;5021110;28;20225;-43
2022/03/05 07:52:04;;;;;;;45.50;25.23;;;2.30;92.90;;;;;;5007390;28;20275;-43
2022/03/05 07:54:34;;;;;;;48.80;24.57;;;2.40;92.80;;;;;;5026945;28;20205;-43
2022/03/05 07:57:06;;;;;;;49.67;24.13;;;2.50;93.00;;;;;;5026820;28;20213;-43
2022/03/05 07:59:33;;;;;;;51.30;25.20;;;2.50;93.00;;;;;;5025581;28;20308;-35
2022/03/05 08:02:03;;;;;;;42.60;25.23;;;2.60;93.00;;;;;;5022842;28;20228;-34
2022/03/05 08:04:35;;;;;;;40.50;24.70;;;2.60;93.00;;;;;;5027007;28;20205;-35
2022/03/05 08:07:23;;;;;;;42.17;24.47;;;2.70;93.10;;;;;;5007239;28;20205;-43
2022/03/05 08:09:50;;;;;;;37.63;24.47;;;2.70;93.10;;;;;;5008688;28;20794;-42
2022/03/05 08:12:25;;;;;;;43.33;24.30;;;2.80;93.20;;;;;;5002665;28;20647;-43
2022/03/05 08:14:53;;;;;;;37.93;23.10;;;2.90;93.30;;;;;;5015660;28;20209;-43
2022/03/05 08:17:27;;;;;;;36.97;24.03;;;2.90;93.30;;;;;;5021310;28;20283;-43
2022/03/05 08:19:54;;;;;;;39.43;23.10;;;3.00;93.30;;;;;;5025457;28;20659;-43
2022/03/05 08:22:27;;;;;;;35.70;22.93;;;3.00;93.30;;;;;;5007929;28;20208;-43
2022/03/05 08:25:00;;;;;;;41.03;23.63;;;3.10;93.30;;;;;;5008353;28;20217;-43
2022/03/05 08:27:35;;;;;;;35.17;23.33;;;3.20;93.50;;;;;;5007299;28;20213;-43
2022/03/05 08:30:08;;;;;;;36.97;22.93;;;3.30;93.40;;;;;;5007693;28;20197;-43
2022/03/05 08:32:35;;;;;;;36.77;23.00;;;3.30;93.50;;;;;;4998639;28;20252;-43
2022/03/05 08:35:07;;;;;;;35.57;22.13;;;3.40;93.50;;;;;;5007404;28;20524;-43
2022/03/05 08:37:35;;;;;;;36.97;22.77;;;3.50;93.60;;;;;;5010559;28;20218;-43
2022/03/05 08:40:05;;;;;;;38.43;23.63;;;3.50;93.60;;;;;;5007620;28;20205;-34
2022/03/05 08:42:38;;;;;;;35.67;22.77;;;3.60;93.70;;;;;;5009942;28;20692;-34
2022/03/05 08:45:06;;;;;;;36.93;22.90;;;3.70;93.70;;;;;;5007396;28;20219;-34
2022/03/05 08:47:33;;;;;;;36.97;22.30;;;3.70;93.70;;;;;;5023963;28;20295;-35
2022/03/05 08:50:01;;;;;;;33.87;21.90;;;3.80;93.80;;;;;;5009165;28;20292;-34
2022/03/05 08:52:35;;;;;;;34.07;21.80;;;3.80;93.80;;;;;;5008590;28;20786;-34
2022/03/05 08:55:08;;;;;;;38.27;22.93;;;3.90;93.80;;;;;;5022477;28;20263;-35
2022/03/05 08:57:39;;;;;;;35.10;21.97;;;4.00;93.90;;;;;;5006664;28;20590;-34
2022/03/05 09:00:10;;;;;;;37.03;23.13;;;4.00;93.90;;;;;;5012229;28;20300;-34
2022/03/05 09:02:38;;;;;;;34.73;22.23;;;4.10;94.00;;;;;;5013801;28;20268;-34
2022/03/05 09:05:08;;;;;;;38.27;22.53;;;4.10;94.00;;;;;;5015747;28;20201;-35
2022/03/05 09:07:35;;;;;;;35.23;22.93;;;4.20;94.10;;;;;;5027700;28;20291;-34
2022/03/05 09:10:03;;;;;;;38.97;23.67;;;4.30;94.10;;;;;;5016171;28;20260;-34
2022/03/05 09:12:35;;;;;;;40.33;23.67;;;4.40;94.10;;;;;;5013769;28;20565;-34
2022/03/05 09:15:06;;;;;;;35.47;21.67;;;4.40;94.10;;;;;;5023944;28;20711;-34
2022/03/05 09:17:33;;;;;;;36.20;22.67;;;4.50;94.10;;;;;;5014245;28;20303;-34
2022/03/05 09:20:00;;;;;;;33.20;22.57;;;4.60;94.10;;;;;;5028812;28;20196;-35
2022/03/05 09:22:28;;;;;;;37.90;23.10;;;4.70;94.20;;;;;;5011528;28;20228;-35
2022/03/05 09:24:55;;;;;;;34.70;22.47;;;4.70;94.20;;;;;;5011537;28;20719;-34
2022/03/05 09:27:28;;;;;;;35.13;22.87;;;4.80;94.30;;;;;;5023429;28;20227;-34
2022/03/05 09:29:55;;;;;;;35.13;22.20;;;4.90;94.30;;;;;;5024603;28;20210;-34
2022/03/05 09:32:25;;;;;;;36.13;22.60;;;5.00;94.40;;;;;;5009445;28;20228;-34
2022/03/05 09:34:53;;;;;;;33.43;21.83;;;5.10;94.40;;;;;;5021178;28;20706;-34
2022/03/05 09:37:23;;;;;;;35.93;22.43;;;5.20;94.50;;;;;;5021335;28;20212;-34
2022/03/05 09:39:50;;;;;;;39.23;24.13;;;5.30;94.60;;;;;;5029555;28;20236;-34
2022/03/05 09:42:20;;;;;;;37.83;23.77;;;5.30;94.60;;;;;;5013317;28;20311;-34
2022/03/05 09:44:53;;;;;;;39.47;24.90;;;5.40;94.60;;;;;;5010786;28;20248;-34
2022/03/05 09:47:22;;;;;;;37.33;24.10;;;5.40;94.70;;;;;;5018509;28;20233;-34
2022/03/05 09:49:50;;;;;;;34.63;23.07;;;5.50;94.70;;;;;;5010204;28;20200;-34
2022/03/05 09:52:19;;;;;;;35.63;23.77;;;5.60;94.80;;;;;;5009472;28;20241;-34
2022/03/05 09:54:50;;;;;;;34.00;23.63;;;5.60;94.70;;;;;;5021020;28;20262;-34
2022/03/05 09:57:19;;;;;;;36.73;23.10;;;5.70;94.80;;;;;;5010635;28;20755;-34
2022/03/05 09:59:47;;;;;;;33.20;22.50;;;5.80;94.90;;;;;;5020478;28;20638;-34
2022/03/05 10:02:17;;;;;;;36.97;23.80;;;5.90;94.90;;;;;;5009650;28;20235;-34
2022/03/05 10:04:44;;;;;;;36.70;23.67;;;5.90;95.00;;;;;;5015605;28;20220;-32
2022/03/05 10:07:16;;;;;;;36.73;24.47;;;6.00;95.00;;;;;;5019261;28;20685;-33
2022/03/05 10:09:47;;;;;;;39.37;25.07;;;6.00;95.10;;;;;;5020141;28;20211;-33
2022/03/05 10:12:30;;;;;;;36.80;24.57;;;6.10;95.20;;;;;;4990553;28;20201;-33
2022/03/05 10:15:21;;;;;;;36.87;24.27;;;6.20;95.20;;;;;;5021857;28;20658;-32
2022/03/05 10:17:56;;;;;;;36.37;24.57;;;6.30;95.30;;;;;;5008259;28;20296;-32
2022/03/05 10:20:35;;;;;;;37.13;24.33;;;6.30;95.30;;;;;;5023306;28;20288;-32
2022/03/05 10:23:06;;;;;;;36.90;23.60;;;6.30;95.40;;;;;;4995120;28;20257;-32
2022/03/05 10:25:42;;;;;;;37.00;24.80;;;6.40;95.40;;;;;;5018335;28;20228;-33
2022/03/05 10:28:23;;;;;;;37.00;24.23;;;6.40;95.40;;;;;;5019226;28;20720;-33
2022/03/05 10:31:03;;;;;;;40.70;25.53;;;6.50;95.40;;;;;;5002015;28;20490;-32
2022/03/05 10:33:43;;;;;;;40.33;25.43;;;6.60;95.50;;;;;;4985238;28;20706;-32
2022/03/05 10:36:20;;;;;;;35.80;24.40;;;6.60;95.50;;;;;;5020929;28;20770;-32
2022/03/05 10:39:09;;;;;;;31.63;21.97;;;6.60;95.50;;;;;;5018670;28;20228;-32
2022/03/05 10:41:41;;;;;;;34.20;23.20;;;6.70;95.50;;;;;;5019312;28;20225;-32
2022/03/05 10:44:15;;;;;;;37.20;23.67;;;6.80;95.60;;;;;;5005581;28;20300;-33
2022/03/05 10:46:46;;;;;;;37.00;23.93;;;6.80;95.60;;;;;;5008037;28;20274;-33
2022/03/05 10:49:24;;;;;;;36.60;23.73;;;6.90;95.60;;;;;;5024456;28;20631;-33
2022/03/05 10:51:55;;;;;;;39.27;25.63;;;6.90;95.70;;;;;;5024952;28;20319;-33
2022/03/05 10:54:42;;;;;;;37.50;24.57;;;7.00;95.80;;;;;;5019155;28;20929;-34
2022/03/05 10:57:23;;;;;;;38.97;25.07;;;7.00;95.70;;;;;;5003112;28;20218;-34
2022/03/05 10:59:53;;;;;;;36.87;24.73;;;7.10;95.80;;;;;;5008141;28;20208;-34
2022/03/05 11:02:23;;;;;;;38.17;24.83;;;7.10;95.80;;;;;;5009035;28;20307;-34
2022/03/05 11:04:54;;;;;;;36.47;25.50;;;7.20;95.90;;;;;;4990178;28;20244;-34
2022/03/05 11:07:25;;;;;;;36.47;24.40;;;7.20;95.90;;;;;;5019248;28;20754;-33
2022/03/05 11:09:54;;;;;;;43.67;26.70;;;7.30;95.90;;;;;;5018146;28;20201;-33
2022/03/05 11:12:21;;;;;;;39.40;26.77;;;7.40;95.90;;;;;;5017977;28;20565;-33
2022/03/05 11:14:51;;;;;;;41.30;25.43;;;7.40;96.00;;;;;;5021433;28;20244;-34
2022/03/05 11:17:19;;;;;;;44.70;26.03;;;7.50;96.00;;;;;;5012534;28;20695;-33
2022/03/05 11:19:47;;;;;;;37.90;25.13;;;7.50;96.00;;;;;;4994475;28;20323;-33
2022/03/05 11:22:18;;;;;;;36.27;24.40;;;7.50;95.90;;;;;;5020999;28;20236;-33
2022/03/05 11:24:48;;;;;;;36.90;24.47;;;7.60;96.00;;;;;;4998595;28;20205;-33
2022/03/05 11:27:19;;;;;;;36.87;24.93;;;7.70;96.10;;;;;;5006891;28;20228;-34
2022/03/05 11:30:00;;;;;;;36.33;24.13;;;7.70;96.10;;;;;;5000412;28;20799;-33
2022/03/05 11:32:39;;;;;;;37.93;25.07;;;7.80;96.20;;;;;;5026076;28;20218;-34
2022/03/05 11:35:28;;;;;;;40.37;25.50;;;7.80;96.20;;;;;;5013625;28;20263;-34
2022/03/05 11:37:59;;;;;;;36.60;24.50;;;7.80;96.20;;;;;;5013786;28;20236;-34
2022/03/05 11:40:34;;;;;;;35.90;23.63;;;7.90;96.20;;;;;;5012028;28;20275;-34
2022/03/05 11:43:22;;;;;;;42.30;25.20;;;7.90;96.20;;;;;;5022306;28;20229;-34
2022/03/05 11:46:03;;;;;;;40.23;24.03;;;8.00;96.30;;;;;;5020399;28;20554;-34
2022/03/05 11:48:37;;;;;;;35.50;23.37;;;8.00;96.20;;;;;;5005757;28;20197;-33
2022/03/05 11:51:16;;;;;;;32.67;23.17;;;8.00;96.20;;;;;;5018158;28;20579;-33
2022/03/05 11:54:14;;;;;;;37.00;25.77;;;8.10;96.30;;;;;;5019480;28;20236;-33
2022/03/05 11:57:13;;;;;;;39.50;24.60;;;8.20;96.40;;;;;;5014905;28;20201;-33
2022/03/05 11:59:54;;;;;;;39.50;23.23;;;8.20;96.30;;;;;;4993205;28;20263;-33
2022/03/05 12:02:43;;;;;;;37.77;25.17;;;8.20;96.40;;;;;;5007487;28;20257;-34
2022/03/05 12:05:44;;;;;;;40.80;26.23;;;8.30;96.20;;;;;;4992013;28;20684;-32
2022/03/05 12:08:33;;;;;;;40.47;25.27;;;8.40;96.50;;;;;;4992933;28;20730;-33
2022/03/05 12:11:17;;;;;;;36.57;25.30;;;8.40;96.40;;;;;;5005899;28;20212;-33
2022/03/05 12:13:52;;;;;;;32.67;23.40;;;8.50;96.60;;;;;;5013860;28;20284;-32
2022/03/05 12:16:25;;;;;;;37.27;24.63;;;8.50;96.60;;;;;;5013406;28;20262;-33
2022/03/05 12:19:01;;;;;;;37.37;25.23;;;8.60;96.60;;;;;;5008344;28;20197;-33
2022/03/05 12:21:34;;;;;;;36.37;25.47;;;8.70;96.70;;;;;;5021040;28;20205;-33
2022/03/05 12:24:07;;;;;;;39.57;26.97;;;8.70;96.70;;;;;;5017363;28;20200;-33
2022/03/05 12:26:43;;;;;;;37.90;25.60;;;8.70;96.80;;;;;;4995313;28;20316;-33
2022/03/05 12:29:11;;;;;;;36.83;25.17;;;8.80;96.80;;;;;;5020591;28;20197;-34
2022/03/05 12:31:45;;;;;;;37.10;25.67;;;8.90;96.90;;;;;;5015173;28;20205;-33
2022/03/05 12:34:12;;;;;;;36.57;24.63;;;8.90;96.90;;;;;;5023292;28;20236;-32
2022/03/05 12:36:43;;;;;;;39.57;26.40;;;9.00;96.90;;;;;;5018971;28;20232;-33
2022/03/05 12:39:14;;;;;;;40.50;26.50;;;9.00;96.90;;;;;;5015369;28;20575;-34
2022/03/05 12:41:47;;;;;;;40.73;26.87;;;9.00;96.90;;;;;;5026085;28;20220;-33
2022/03/05 12:44:17;;;;;;;35.07;24.93;;;9.00;97.00;;;;;;5009364;28;20573;-33
2022/03/05 12:46:50;;;;;;;36.03;25.73;;;9.10;97.00;;;;;;5021881;28;20198;-34
2022/03/05 12:49:17;;;;;;;35.83;25.40;;;9.20;97.10;;;;;;5019333;28;20209;-43
2022/03/05 12:51:45;;;;;;;38.10;26.20;;;9.20;97.10;;;;;;5027727;28;20630;-43
2022/03/05 12:54:16;;;;;;;37.23;25.77;;;9.30;97.10;;;;;;5027313;28;20236;-43
2022/03/05 12:56:46;;;;;;;37.17;24.50;;;9.30;97.10;;;;;;5020361;28;20300;-42